Hlavní strana
METAR-TAF:

METAR-TAF

Letiště :

Auckland Airport

Auckland, Nový Zéland

zeměpisná šířka: 37-01S, zeměpisná délka: 174-48E, výška: 7 m

Aktuální stav počasí

Zpráva byla vytvořena před 14 minutami, v 13:30 UTC
Východní vítr 2 kt
Teplota 10°C
Vlhkost vzduchu 93%
Tlak 1029 hPa
Viditelnost 10 km a více

METAR: NZAA 191330Z AUTO 08002KT 9999 NCD 10/09 Q1029 NOSIG

Čas: 02:44 (13:44 UTC)

Předpověď počasí

Zpráva byla vytvořena před 2 hodinami a 37 minutami, v 11:07 UTC
Předpověď platná od 19 v 12 UTC do 20 v 12 UTC
vítr z různých směrů 2 kt
Viditelnost 10 km a více
Skoro jasno ve výšce 1200 ft
Polojasno ve výšce 2000 ft
Dočasný
od 19 v 15 UTC do 19 v 20 UTC
Oblačno až skoro zataženo ve výšce 1200 ft
Změna
od 20 v 00 UTC do 20 v 02 UTC
Západojihozápadní vítr 10 kt
Změna
od 20 v 05 UTC do 20 v 07 UTC
vítr z různých směrů 2 kt

TAF: NZAA 191107Z 1912/2012 VRB02KT 9999 FEW012 SCT020 TEMPO 1915/1920 BKN012 BECMG 2000/2002 25010KT BECMG 2005/2007 VRB02KT

Stav a předpovědi počasí z více než 4 000 letišť (zprávy METAR a TAF).

Červené a žluté tečky na mapě představují dostupné meteorologické stanice.

Když kurzor umístíte na tečku, zobrazí se název stanice.

Pak kliknutím zobrazíte stav a předpověď počasí.

Chcete-li změnit mapu, kliknutím na zelené tlačítko se znaménkem +mapu přiblížíte, kliknutím na zelené tlačítko se znaménkem – mapu oddálíte a kliknutím na zelené šipky přejdete na sousední mapy.


METAR-TAF: